Time;durP1;ratioP1;P1;durP2;ratioP2;P2;SDS_P1;SDS_P2;PMS_P1;PMS_P2;Temp;Humidity;BMP_temperature;BMP_pressure;BME280_temperature;BME280_humidity;BME280_pressure;Samples;Min_cycle;Max_cycle;Signal;HPM_P1;HPM_P2
2023/01/31 00:40:31;;;;;;;;;;;23.30;78.20;;;;;;6304038;22;19934;-70
2023/01/31 00:42:58;;;;;;;;;;;23.20;76.90;;;;;;6273088;22;19918;-71
2023/01/31 00:45:25;;;;;;;;;;;23.20;77.60;;;;;;6278866;22;19985;-70
2023/01/31 00:47:51;;;;;;;;;;;23.20;77.80;;;;;;6278333;22;19907;-70
2023/01/31 00:50:18;;;;;;;;;;;23.10;77.90;;;;;;6252821;22;19927;-70
2023/01/31 00:52:45;;;;;;;;;;;23.10;77.30;;;;;;6253231;22;19910;-69
2023/01/31 00:55:11;;;;;;;;;;;23.10;78.50;;;;;;6305504;22;19903;-71
2023/01/31 00:57:38;;;;;;;;;;;23.10;78.60;;;;;;6305613;22;20006;-70
2023/01/31 01:00:05;;;;;;;;;;;23.10;77.60;;;;;;6306091;22;19903;-69
2023/01/31 01:02:32;;;;;;;;;;;23.10;77.80;;;;;;6278072;22;19984;-69
2023/01/31 01:04:58;;;;;;;;;;;23.20;77.70;;;;;;6277748;22;19911;-69
2023/01/31 01:07:25;;;;;;;;;;;23.20;78.20;;;;;;6278763;22;20219;-69
2023/01/31 01:09:53;;;;;;;;;;;23.20;79.00;;;;;;6305584;22;19976;-68
2023/01/31 01:12:20;;;;;;;;;;;23.30;78.00;;;;;;6277710;22;19907;-68
2023/01/31 01:14:46;;;;;;;;;;;23.30;78.30;;;;;;6307684;22;19964;-69
2023/01/31 01:17:13;;;;;;;;;;;23.30;78.20;;;;;;6307636;22;19989;-70
2023/01/31 01:19:40;;;;;;;;;;;23.30;78.80;;;;;;6307964;22;19914;-70
2023/01/31 01:22:06;;;;;;;;;;;23.30;77.00;;;;;;6307335;22;20231;-70
2023/01/31 01:24:33;;;;;;;;;;;23.30;77.70;;;;;;6307258;22;19911;-70
2023/01/31 01:27:00;;;;;;;;;;;23.20;77.00;;;;;;6308155;22;19977;-70
2023/01/31 01:29:26;;;;;;;;;;;23.20;77.60;;;;;;6307236;22;19982;-69
2023/01/31 01:31:53;;;;;;;;;;;23.20;76.90;;;;;;6307198;22;19903;-69
2023/01/31 01:34:20;;;;;;;;;;;23.20;78.20;;;;;;6307453;22;19903;-70
2023/01/31 01:36:46;;;;;;;;;;;23.20;76.80;;;;;;6306880;22;20341;-70
2023/01/31 01:39:13;;;;;;;;;;;23.20;75.60;;;;;;6307136;22;19903;-70
2023/01/31 01:41:40;;;;;;;;;;;23.20;76.60;;;;;;6307104;22;20241;-70
2023/01/31 01:44:25;;;;;;;;;;;23.20;77.40;;;;;;6306829;22;19942;-70
2023/01/31 01:46:51;;;;;;;;;;;23.30;76.80;;;;;;6306904;22;19909;-70
2023/01/31 01:49:20;;;;;;;;;;;23.30;77.40;;;;;;6279748;22;19910;-70
2023/01/31 01:51:47;;;;;;;;;;;23.30;77.70;;;;;;6279690;22;19929;-70
2023/01/31 01:54:15;;;;;;;;;;;23.30;77.30;;;;;;6280146;22;19909;-70
2023/01/31 01:56:42;;;;;;;;;;;23.40;76.10;;;;;;6254687;22;19903;-70
2023/01/31 01:59:14;;;;;;;;;;;23.40;76.90;;;;;;6279857;22;19907;-70
2023/01/31 02:01:40;;;;;;;;;;;23.50;76.50;;;;;;6280529;22;19949;-70
2023/01/31 02:04:08;;;;;;;;;;;23.50;76.80;;;;;;6279690;22;19919;-70
2023/01/31 02:06:38;;;;;;;;;;;23.50;77.50;;;;;;6253985;22;19960;-70
2023/01/31 02:09:05;;;;;;;;;;;23.60;78.30;;;;;;6280064;22;19910;-71
2023/01/31 02:11:32;;;;;;;;;;;23.60;77.80;;;;;;6279681;22;19910;-71
2023/01/31 02:14:02;;;;;;;;;;;23.70;76.50;;;;;;6307063;22;20450;-71
2023/01/31 02:16:29;;;;;;;;;;;23.70;77.50;;;;;;6254602;22;19902;-70
2023/01/31 02:18:56;;;;;;;;;;;23.70;76.40;;;;;;6254146;22;19903;-70
2023/01/31 02:21:31;;;;;;;;;;;23.80;76.10;;;;;;6307007;22;19903;-70
2023/01/31 02:24:21;;;;;;;;;;;23.80;76.20;;;;;;6279781;22;19922;-70
2023/01/31 02:27:07;;;;;;;;;;;23.80;76.70;;;;;;6253738;22;20330;-71
2023/01/31 02:29:48;;;;;;;;;;;23.80;76.50;;;;;;6306369;22;19965;-70
2023/01/31 02:32:34;;;;;;;;;;;23.80;75.70;;;;;;6254617;22;19918;-70
2023/01/31 02:35:01;;;;;;;;;;;23.80;75.80;;;;;;6279457;22;20326;-69
2023/01/31 02:37:29;;;;;;;;;;;23.80;76.90;;;;;;6306562;22;19903;-70
2023/01/31 02:40:05;;;;;;;;;;;23.80;76.60;;;;;;6280409;22;19903;-70
2023/01/31 02:42:34;;;;;;;;;;;23.80;77.30;;;;;;6306346;22;20036;-70
2023/01/31 02:45:04;;;;;;;;;;;23.80;76.10;;;;;;6306571;22;20328;-70
2023/01/31 02:47:49;;;;;;;;;;;23.90;76.90;;;;;;6279567;22;19906;-70
2023/01/31 02:50:34;;;;;;;;;;;24.00;75.10;;;;;;6306359;22;19903;-70
2023/01/31 02:53:03;;;;;;;;;;;24.20;75.70;;;;;;6306124;22;19903;-70
2023/01/31 02:58:15;;;;;;;;;;;24.20;76.40;;;;;;6307091;22;19914;-70
2023/01/31 03:00:43;;;;;;;;;;;24.20;77.00;;;;;;6253552;22;19961;-70
2023/01/31 03:03:16;;;;;;;;;;;24.20;77.40;;;;;;6279103;22;20227;-70
2023/01/31 03:05:43;;;;;;;;;;;24.10;77.40;;;;;;6279839;22;19907;-71
2023/01/31 03:08:10;;;;;;;;;;;24.10;77.60;;;;;;6306099;22;19910;-71
2023/01/31 03:10:36;;;;;;;;;;;24.20;77.60;;;;;;6306175;22;19956;-71
2023/01/31 03:13:20;;;;;;;;;;;24.20;77.70;;;;;;6306165;22;19910;-71
2023/01/31 03:18:51;;;;;;;;;;;24.30;77.30;;;;;;6306044;22;19949;-71
2023/01/31 03:21:25;;;;;;;;;;;24.30;76.30;;;;;;6306863;22;19930;-70
2023/01/31 03:23:52;;;;;;;;;;;24.40;75.80;;;;;;6253425;22;20006;-70
2023/01/31 03:26:20;;;;;;;;;;;24.40;76.30;;;;;;6278574;22;19910;-71
2023/01/31 03:28:49;;;;;;;;;;;24.50;76.60;;;;;;6278988;22;19917;-70
2023/01/31 03:31:15;;;;;;;;;;;24.50;73.70;;;;;;6278030;22;20302;-71
2023/01/31 03:33:43;;;;;;;;;;;24.60;74.60;;;;;;6305760;22;20385;-70
2023/01/31 03:36:13;;;;;;;;;;;24.60;74.30;;;;;;6253243;22;19910;-70
2023/01/31 03:38:44;;;;;;;;;;;24.70;73.50;;;;;;6278808;22;19903;-70
2023/01/31 03:41:30;;;;;;;;;;;24.80;73.80;;;;;;6279027;22;20000;-70
2023/01/31 03:44:06;;;;;;;;;;;24.80;74.60;;;;;;6303840;22;20298;-71
2023/01/31 03:46:46;;;;;;;;;;;24.80;72.90;;;;;;6278295;22;20269;-71
2023/01/31 03:49:12;;;;;;;;;;;24.90;75.10;;;;;;6278095;22;19903;-71
2023/01/31 03:51:41;;;;;;;;;;;24.80;73.00;;;;;;6279131;22;19909;-71
2023/01/31 03:54:12;;;;;;;;;;;24.80;73.70;;;;;;6252338;22;19918;-71
2023/01/31 03:56:59;;;;;;;;;;;24.80;74.50;;;;;;6278001;22;19907;-71
2023/01/31 03:59:27;;;;;;;;;;;24.80;75.20;;;;;;6305344;22;20234;-71
2023/01/31 04:01:55;;;;;;;;;;;24.60;73.40;;;;;;6252435;22;19903;-71
2023/01/31 04:04:25;;;;;;;;;;;24.60;74.40;;;;;;6277891;22;19919;-71
2023/01/31 04:06:52;;;;;;;;;;;24.60;74.90;;;;;;6253059;22;19914;-70
2023/01/31 04:09:19;;;;;;;;;;;24.60;75.10;;;;;;6305382;22;20292;-71
2023/01/31 04:11:49;;;;;;;;;;;24.70;75.30;;;;;;6275336;22;19907;-77
2023/01/31 04:14:15;;;;;;;;;;;24.80;74.60;;;;;;6276163;22;19914;-73
2023/01/31 04:16:42;;;;;;;;;;;24.70;74.00;;;;;;6302440;22;19914;-73
2023/01/31 04:19:09;;;;;;;;;;;24.80;73.90;;;;;;6301712;22;19952;-72
2023/01/31 04:21:35;;;;;;;;;;;24.80;74.70;;;;;;6302809;22;20536;-72
2023/01/31 04:24:02;;;;;;;;;;;24.80;74.60;;;;;;6301844;22;19966;-72
2023/01/31 04:26:29;;;;;;;;;;;24.80;74.70;;;;;;6303050;22;19918;-72
2023/01/31 04:28:55;;;;;;;;;;;24.80;74.70;;;;;;6303585;22;19910;-72
2023/01/31 04:31:22;;;;;;;;;;;24.80;72.50;;;;;;6302297;22;20241;-72
2023/01/31 04:33:49;;;;;;;;;;;24.80;74.20;;;;;;6275127;22;20308;-75
2023/01/31 04:36:15;;;;;;;;;;;24.80;74.10;;;;;;6302519;22;20241;-74
2023/01/31 04:38:42;;;;;;;;;;;25.00;73.50;;;;;;6302496;22;19906;-74
2023/01/31 04:41:09;;;;;;;;;;;25.10;72.90;;;;;;6303190;22;19993;-74
2023/01/31 04:43:35;;;;;;;;;;;25.30;72.40;;;;;;6274829;22;20237;-75
2023/01/31 04:46:02;;;;;;;;;;;25.40;71.10;;;;;;6302300;22;20238;-74
2023/01/31 04:48:29;;;;;;;;;;;25.30;71.70;;;;;;6275940;22;19906;-75
2023/01/31 04:50:56;;;;;;;;;;;25.30;73.60;;;;;;6275911;22;19922;-74
2023/01/31 04:53:22;;;;;;;;;;;25.20;72.90;;;;;;6277211;22;20218;-75
2023/01/31 04:55:49;;;;;;;;;;;25.10;73.60;;;;;;6277239;22;19903;-76
2023/01/31 04:58:16;;;;;;;;;;;25.20;73.30;;;;;;6276822;22;19986;-70
2023/01/31 05:00:43;;;;;;;;;;;25.10;73.40;;;;;;6276771;22;19907;-73
2023/01/31 05:03:10;;;;;;;;;;;25.10;74.50;;;;;;6276730;22;19941;-74
2023/01/31 05:05:37;;;;;;;;;;;25.10;74.60;;;;;;6304551;22;19910;-75
2023/01/31 05:08:04;;;;;;;;;;;25.00;73.80;;;;;;6304141;22;19930;-72
2023/01/31 05:10:30;;;;;;;;;;;25.00;74.30;;;;;;6303697;22;19907;-74
2023/01/31 05:12:57;;;;;;;;;;;24.90;75.20;;;;;;6276507;22;20249;-74
2023/01/31 05:15:24;;;;;;;;;;;24.90;74.80;;;;;;6304559;22;19907;-72
2023/01/31 05:18:01;;;;;;;;;;;25.00;74.70;;;;;;6304510;22;19965;-71
2023/01/31 05:20:32;;;;;;;;;;;24.90;75.40;;;;;;6278442;22;19907;-73
2023/01/31 05:22:59;;;;;;;;;;;24.90;73.80;;;;;;6304307;22;19907;-75
2023/01/31 05:25:26;;;;;;;;;;;24.90;75.10;;;;;;6303924;22;19911;-75
2023/01/31 05:27:53;;;;;;;;;;;24.80;74.40;;;;;;6304249;22;20280;-72
2023/01/31 05:30:21;;;;;;;;;;;24.80;74.70;;;;;;6250966;22;19907;-72
2023/01/31 05:32:48;;;;;;;;;;;24.80;75.50;;;;;;6303231;22;19911;-73
2023/01/31 05:35:15;;;;;;;;;;;24.80;75.10;;;;;;6304326;22;19978;-71
2023/01/31 05:37:42;;;;;;;;;;;24.80;74.90;;;;;;6303580;22;19990;-72
2023/01/31 05:40:10;;;;;;;;;;;24.80;74.40;;;;;;6303121;22;19911;-71
2023/01/31 05:42:36;;;;;;;;;;;24.80;75.20;;;;;;6303866;22;20347;-72
2023/01/31 05:45:03;;;;;;;;;;;24.80;74.40;;;;;;6276736;22;19974;-71
2023/01/31 05:47:30;;;;;;;;;;;24.80;74.50;;;;;;6303407;22;19903;-72
2023/01/31 05:49:56;;;;;;;;;;;24.80;75.00;;;;;;6276458;22;19907;-67
2023/01/31 05:52:26;;;;;;;;;;;24.80;74.90;;;;;;6301107;22;19907;-66
2023/01/31 05:54:53;;;;;;;;;;;24.70;74.80;;;;;;6275544;22;19914;-72
2023/01/31 05:57:20;;;;;;;;;;;24.60;74.70;;;;;;6304136;22;19907;-73
2023/01/31 05:59:46;;;;;;;;;;;24.60;74.90;;;;;;6302960;22;20417;-72
2023/01/31 06:02:13;;;;;;;;;;;24.60;74.40;;;;;;6276939;22;19903;-73
2023/01/31 06:04:39;;;;;;;;;;;24.70;74.10;;;;;;6304620;22;20364;-72
2023/01/31 06:07:06;;;;;;;;;;;24.80;75.10;;;;;;6276847;22;19907;-72
2023/01/31 06:09:33;;;;;;;;;;;24.70;72.80;;;;;;6303702;22;19950;-72
2023/01/31 06:11:59;;;;;;;;;;;24.70;74.30;;;;;;6303754;22;20211;-73
2023/01/31 06:14:26;;;;;;;;;;;24.70;74.80;;;;;;6250580;22;19907;-77
2023/01/31 06:16:53;;;;;;;;;;;24.80;74.40;;;;;;6249733;22;19911;-76
2023/01/31 06:19:24;;;;;;;;;;;24.80;75.40;;;;;;6302056;22;19953;-76
2023/01/31 06:21:51;;;;;;;;;;;24.90;75.50;;;;;;6275524;22;19972;-75
2023/01/31 06:24:18;;;;;;;;;;;24.80;74.60;;;;;;6302208;22;19947;-76
2023/01/31 06:26:44;;;;;;;;;;;24.80;74.80;;;;;;6301705;22;19914;-78
2023/01/31 06:29:11;;;;;;;;;;;24.80;74.10;;;;;;6301707;22;20329;-75
2023/01/31 06:31:38;;;;;;;;;;;24.80;73.90;;;;;;6301815;22;19918;-74
2023/01/31 06:34:04;;;;;;;;;;;24.70;73.50;;;;;;6300969;22;19909;-72
2023/01/31 06:36:32;;;;;;;;;;;24.70;74.70;;;;;;6274842;22;19969;-74
2023/01/31 06:38:59;;;;;;;;;;;24.70;75.10;;;;;;6275286;22;19915;-75
2023/01/31 06:41:26;;;;;;;;;;;24.70;74.70;;;;;;6300124;22;20207;-77
2023/01/31 06:43:53;;;;;;;;;;;24.60;74.60;;;;;;6300983;22;20240;-77
2023/01/31 06:46:19;;;;;;;;;;;24.60;74.30;;;;;;6302761;22;19903;-77
2023/01/31 06:48:47;;;;;;;;;;;24.70;74.40;;;;;;6274717;22;19907;-76
2023/01/31 06:51:17;;;;;;;;;;;24.70;74.60;;;;;;6272076;22;20557;-76
2023/01/31 06:53:43;;;;;;;;;;;24.80;74.10;;;;;;6301890;22;19903;-75
2023/01/31 06:56:10;;;;;;;;;;;24.70;75.40;;;;;;6302303;22;20239;-75
2023/01/31 06:58:37;;;;;;;;;;;24.70;75.20;;;;;;6274832;22;19913;-76
2023/01/31 07:01:10;;;;;;;;;;;24.60;75.40;;;;;;6302849;22;19903;-76
2023/01/31 07:03:37;;;;;;;;;;;24.50;75.00;;;;;;6274855;22;19938;-77
2023/01/31 07:06:04;;;;;;;;;;;24.40;75.70;;;;;;6275832;22;19903;-73
2023/01/31 07:08:31;;;;;;;;;;;24.40;75.60;;;;;;6302532;22;19922;-75
2023/01/31 07:11:00;;;;;;;;;;;24.40;75.80;;;;;;6301202;22;19907;-76
2023/01/31 07:13:27;;;;;;;;;;;24.40;76.10;;;;;;6301524;22;19906;-74
2023/01/31 07:15:54;;;;;;;;;;;24.40;75.70;;;;;;6299501;22;20393;-74
2023/01/31 07:18:21;;;;;;;;;;;24.30;75.40;;;;;;6301971;22;19913;-71
2023/01/31 07:20:48;;;;;;;;;;;24.30;74.70;;;;;;6300342;22;20297;-73
2023/01/31 07:23:15;;;;;;;;;;;24.30;75.10;;;;;;6300762;22;19942;-74
2023/01/31 07:25:42;;;;;;;;;;;24.20;74.80;;;;;;6273987;22;19911;-74
2023/01/31 07:28:09;;;;;;;;;;;24.30;74.80;;;;;;6302578;22;19942;-74
2023/01/31 07:30:35;;;;;;;;;;;24.30;75.00;;;;;;6275147;22;19942;-74
2023/01/31 07:33:02;;;;;;;;;;;24.20;74.40;;;;;;6248983;22;19938;-74
2023/01/31 07:35:29;;;;;;;;;;;24.30;74.30;;;;;;6272100;22;20001;-72
2023/01/31 07:37:56;;;;;;;;;;;24.30;74.50;;;;;;6272199;22;19907;-74
2023/01/31 07:40:22;;;;;;;;;;;24.30;74.20;;;;;;6301512;22;19903;-70
2023/01/31 07:42:49;;;;;;;;;;;24.30;73.80;;;;;;6273391;22;19918;-73
2023/01/31 07:45:16;;;;;;;;;;;24.20;73.50;;;;;;6272698;22;19942;-75
2023/01/31 07:47:42;;;;;;;;;;;24.20;74.10;;;;;;6299848;22;20002;-72
2023/01/31 07:50:09;;;;;;;;;;;24.20;72.80;;;;;;6300744;22;20322;-71
2023/01/31 07:52:36;;;;;;;;;;;24.10;72.70;;;;;;6269448;22;19911;-72
2023/01/31 07:55:03;;;;;;;;;;;24.10;73.80;;;;;;6272584;22;20266;-71
2023/01/31 07:57:32;;;;;;;;;;;24.00;73.20;;;;;;6270671;22;20416;-72
2023/01/31 07:59:59;;;;;;;;;;;24.00;73.70;;;;;;6300185;22;19953;-70
2023/01/31 08:05:11;;;;;;;;;;;23.90;75.20;;;;;;6300816;22;20285;-72
2023/01/31 08:07:38;;;;;;;;;;;23.90;74.30;;;;;;6272915;22;19903;-74
2023/01/31 08:10:04;;;;;;;;;;;23.90;74.30;;;;;;6301155;22;20289;-74
2023/01/31 08:12:31;;;;;;;;;;;23.90;73.70;;;;;;6298925;22;19911;-73
2023/01/31 08:14:58;;;;;;;;;;;23.80;74.00;;;;;;6300375;22;20016;-75
2023/01/31 08:17:24;;;;;;;;;;;23.90;74.30;;;;;;6248017;22;19903;-76
2023/01/31 08:19:51;;;;;;;;;;;23.80;74.60;;;;;;6248413;22;19907;-75
2023/01/31 08:22:18;;;;;;;;;;;23.80;73.60;;;;;;6300441;22;20321;-75
2023/01/31 08:24:45;;;;;;;;;;;23.70;73.70;;;;;;6274889;22;20334;-73
2023/01/31 08:27:11;;;;;;;;;;;23.70;74.20;;;;;;6303129;22;20298;-74
2023/01/31 08:29:38;;;;;;;;;;;23.70;74.80;;;;;;6274977;22;19934;-74
2023/01/31 08:32:04;;;;;;;;;;;23.70;75.20;;;;;;6303302;22;19915;-74
2023/01/31 08:34:31;;;;;;;;;;;23.70;75.70;;;;;;6275468;22;19965;-74
2023/01/31 08:36:59;;;;;;;;;;;23.60;74.80;;;;;;6302126;22;19907;-73
2023/01/31 08:39:26;;;;;;;;;;;23.60;73.70;;;;;;6301584;22;19914;-73
2023/01/31 08:41:53;;;;;;;;;;;23.60;74.60;;;;;;6302164;22;20219;-73
2023/01/31 08:44:20;;;;;;;;;;;23.50;73.70;;;;;;6303872;22;20478;-73
2023/01/31 08:46:47;;;;;;;;;;;23.60;73.80;;;;;;6276383;22;20033;-74
2023/01/31 08:49:14;;;;;;;;;;;23.60;73.60;;;;;;6274382;22;19981;-73
2023/01/31 08:51:40;;;;;;;;;;;23.50;73.10;;;;;;6300430;22;19961;-73
2023/01/31 08:54:09;;;;;;;;;;;23.40;73.00;;;;;;6302848;22;19983;-73
2023/01/31 08:56:36;;;;;;;;;;;23.40;73.70;;;;;;6276668;22;19907;-73
2023/01/31 08:59:02;;;;;;;;;;;23.30;73.30;;;;;;6275548;22;19953;-73
2023/01/31 09:01:29;;;;;;;;;;;23.40;73.50;;;;;;6301534;22;19996;-74
2023/01/31 09:03:56;;;;;;;;;;;23.30;73.80;;;;;;6247905;22;19922;-74
2023/01/31 09:06:24;;;;;;;;;;;23.30;73.30;;;;;;6303027;22;19937;-74
2023/01/31 09:08:51;;;;;;;;;;;23.30;72.20;;;;;;6301223;22;20242;-73
2023/01/31 09:11:18;;;;;;;;;;;23.30;73.20;;;;;;6302507;22;19911;-73
2023/01/31 09:13:51;;;;;;;;;;;23.30;71.50;;;;;;6274590;22;19906;-73
2023/01/31 09:16:17;;;;;;;;;;;23.30;72.10;;;;;;6249582;22;19907;-73
2023/01/31 09:18:44;;;;;;;;;;;23.30;71.40;;;;;;6275416;22;19911;-73
2023/01/31 09:21:12;;;;;;;;;;;23.20;71.50;;;;;;6273932;22;19965;-73
2023/01/31 09:23:38;;;;;;;;;;;23.20;72.10;;;;;;6302996;22;19911;-73
2023/01/31 09:26:05;;;;;;;;;;;23.20;71.80;;;;;;6275232;22;19915;-73
2023/01/31 09:28:32;;;;;;;;;;;23.10;72.90;;;;;;6302552;22;19934;-74
2023/01/31 09:31:05;;;;;;;;;;;23.10;72.80;;;;;;6275347;22;19918;-74
2023/01/31 09:33:32;;;;;;;;;;;23.00;73.00;;;;;;6301342;22;19914;-73
2023/01/31 09:36:00;;;;;;;;;;;23.10;72.40;;;;;;6303281;22;19960;-74
2023/01/31 09:38:27;;;;;;;;;;;23.10;72.80;;;;;;6275701;22;19906;-73
2023/01/31 09:40:54;;;;;;;;;;;23.10;71.80;;;;;;6274869;22;19915;-73
2023/01/31 09:43:21;;;;;;;;;;;23.00;71.80;;;;;;6274776;22;19910;-73
2023/01/31 09:45:48;;;;;;;;;;;23.00;72.70;;;;;;6275965;22;19911;-73
2023/01/31 09:48:17;;;;;;;;;;;23.00;72.40;;;;;;6301090;22;19915;-73
2023/01/31 09:50:49;;;;;;;;;;;23.00;72.50;;;;;;6301307;22;20694;-73
2023/01/31 09:53:20;;;;;;;;;;;23.00;73.10;;;;;;6272927;22;19911;-73
2023/01/31 09:55:50;;;;;;;;;;;23.00;73.80;;;;;;6276114;22;19910;-72
2023/01/31 09:58:17;;;;;;;;;;;23.00;73.80;;;;;;6271971;22;19926;-70
2023/01/31 10:00:47;;;;;;;;;;;22.90;73.20;;;;;;6297404;22;19907;-70
2023/01/31 10:03:37;;;;;;;;;;;22.90;73.80;;;;;;6273285;22;19911;-71
2023/01/31 10:06:18;;;;;;;;;;;22.90;74.30;;;;;;6302734;22;20330;-73
2023/01/31 10:09:04;;;;;;;;;;;22.90;74.50;;;;;;6305810;22;19910;-72
2023/01/31 10:11:57;;;;;;;;;;;22.90;74.40;;;;;;6305552;22;19914;-73
2023/01/31 10:14:29;;;;;;;;;;;22.90;74.40;;;;;;6298946;22;20242;-73
2023/01/31 10:16:58;;;;;;;;;;;22.90;74.10;;;;;;6306121;22;19903;-72
2023/01/31 10:19:26;;;;;;;;;;;22.90;74.30;;;;;;6278573;22;19923;-73
2023/01/31 10:21:53;;;;;;;;;;;22.90;74.20;;;;;;6306351;22;20028;-73
2023/01/31 10:24:22;;;;;;;;;;;22.90;74.40;;;;;;6303932;22;19911;-72
2023/01/31 10:26:50;;;;;;;;;;;22.90;74.10;;;;;;6305650;22;20222;-74
2023/01/31 10:29:19;;;;;;;;;;;22.90;74.30;;;;;;6277656;22;20277;-74
2023/01/31 10:31:53;;;;;;;;;;;23.00;74.70;;;;;;6275916;22;19903;-76
2023/01/31 10:34:23;;;;;;;;;;;23.00;75.30;;;;;;6305482;22;19914;-74
2023/01/31 10:37:00;;;;;;;;;;;23.00;75.10;;;;;;6305109;22;19934;-72
2023/01/31 10:39:29;;;;;;;;;;;22.90;75.20;;;;;;6304560;22;19903;-73
2023/01/31 10:42:00;;;;;;;;;;;22.80;75.40;;;;;;6278162;22;19937;-73
2023/01/31 10:44:31;;;;;;;;;;;22.90;75.60;;;;;;6276274;22;19922;-73
2023/01/31 10:46:57;;;;;;;;;;;22.90;75.80;;;;;;6277378;22;19978;-73
2023/01/31 10:49:24;;;;;;;;;;;22.90;75.90;;;;;;6277375;22;19990;-73
2023/01/31 10:52:09;;;;;;;;;;;22.90;76.00;;;;;;6306125;22;19903;-73
2023/01/31 10:54:52;;;;;;;;;;;22.90;76.00;;;;;;6303646;22;20169;-75
2023/01/31 10:57:18;;;;;;;;;;;22.90;76.00;;;;;;6305757;22;19985;-69
2023/01/31 10:59:45;;;;;;;;;;;22.90;76.00;;;;;;6278004;22;19903;-70
2023/01/31 11:02:19;;;;;;;;;;;22.90;76.10;;;;;;6304849;22;19907;-67
2023/01/31 11:04:45;;;;;;;;;;;22.90;76.40;;;;;;6304801;22;19918;-68
2023/01/31 11:07:12;;;;;;;;;;;22.90;76.70;;;;;;6305858;22;19907;-67
2023/01/31 11:09:40;;;;;;;;;;;22.90;77.10;;;;;;6304137;22;19911;-71
2023/01/31 11:12:07;;;;;;;;;;;22.90;76.70;;;;;;6276383;22;19996;-69
2023/01/31 11:14:35;;;;;;;;;;;22.90;76.60;;;;;;6251283;22;19910;-68
2023/01/31 11:17:05;;;;;;;;;;;22.90;76.80;;;;;;6278477;22;19903;-68
2023/01/31 11:19:34;;;;;;;;;;;22.80;77.30;;;;;;6304805;22;19907;-68
2023/01/31 11:29:53;;;;;;;;;;;22.80;78.00;;;;;;6303476;22;19919;-73
2023/01/31 11:32:21;;;;;;;;;;;22.80;77.40;;;;;;6302437;22;19907;-70
2023/01/31 11:34:58;;;;;;;;;;;22.80;77.30;;;;;;6272619;22;19908;-69
2023/01/31 11:37:24;;;;;;;;;;;22.80;77.60;;;;;;6274199;22;19907;-70
2023/01/31 11:39:55;;;;;;;;;;;22.80;77.60;;;;;;6274577;22;19903;-71
2023/01/31 11:42:22;;;;;;;;;;;22.80;76.90;;;;;;6274015;22;19982;-72
2023/01/31 11:44:59;;;;;;;;;;;22.80;78.20;;;;;;6272509;22;19922;-74
2023/01/31 11:47:39;;;;;;;;;;;22.80;76.90;;;;;;6273695;22;20499;-72
2023/01/31 11:50:06;;;;;;;;;;;22.80;77.50;;;;;;6274946;22;19903;-73
2023/01/31 11:52:33;;;;;;;;;;;22.80;77.90;;;;;;6273549;22;19903;-73
2023/01/31 11:55:01;;;;;;;;;;;22.80;77.30;;;;;;6273138;22;19900;-73
2023/01/31 11:57:30;;;;;;;;;;;22.80;77.40;;;;;;6246453;22;19926;-70
2023/01/31 11:59:57;;;;;;;;;;;22.80;77.40;;;;;;6273961;22;19911;-69
2023/01/31 12:02:26;;;;;;;;;;;22.80;77.80;;;;;;6273859;22;19935;-69
2023/01/31 12:04:52;;;;;;;;;;;22.80;77.40;;;;;;6272314;22;19915;-70
2023/01/31 12:07:23;;;;;;;;;;;22.70;77.20;;;;;;6274088;22;20307;-73
2023/01/31 12:09:50;;;;;;;;;;;22.80;77.60;;;;;;6273365;22;19911;-73
2023/01/31 12:12:35;;;;;;;;;;;22.70;77.40;;;;;;6273795;22;19950;-73
2023/01/31 12:15:03;;;;;;;;;;;22.70;77.80;;;;;;6271812;22;19950;-72
2023/01/31 12:17:31;;;;;;;;;;;22.60;77.50;;;;;;6271397;22;20328;-77
2023/01/31 12:20:03;;;;;;;;;;;22.60;77.90;;;;;;6245339;22;19911;-75
2023/01/31 12:22:30;;;;;;;;;;;22.60;77.40;;;;;;6272768;22;19904;-75
2023/01/31 12:25:12;;;;;;;;;;;22.60;78.00;;;;;;6272293;22;19919;-77
2023/01/31 12:27:48;;;;;;;;;;;22.60;78.00;;;;;;6272937;22;19907;-76
2023/01/31 12:36:09;;;;;;;;;;;22.50;77.90;;;;;;6272533;22;19966;-76
2023/01/31 12:38:53;;;;;;;;;;;22.50;78.00;;;;;;6273565;22;19960;-75
2023/01/31 12:41:23;;;;;;;;;;;22.40;77.90;;;;;;6273948;22;19907;-77
2023/01/31 12:44:14;;;;;;;;;;;22.40;77.80;;;;;;6268913;22;20045;-75
2023/01/31 12:46:59;;;;;;;;;;;22.50;77.70;;;;;;6271198;22;20326;-75
2023/01/31 12:49:26;;;;;;;;;;;22.50;78.00;;;;;;6271101;22;20313;-73
2023/01/31 12:52:00;;;;;;;;;;;22.40;77.90;;;;;;6273335;22;19908;-75
2023/01/31 12:54:32;;;;;;;;;;;22.50;78.00;;;;;;6273113;22;19930;-74
2023/01/31 12:57:14;;;;;;;;;;;22.40;78.10;;;;;;6273774;22;19903;-76
2023/01/31 12:59:47;;;;;;;;;;;22.40;78.00;;;;;;6272303;22;19998;-76
2023/01/31 13:02:22;;;;;;;;;;;22.30;77.90;;;;;;6273350;22;19907;-76
2023/01/31 13:04:49;;;;;;;;;;;22.30;77.70;;;;;;6270772;22;19911;-76
2023/01/31 13:07:19;;;;;;;;;;;22.30;77.80;;;;;;6271617;22;19915;-76
2023/01/31 13:09:45;;;;;;;;;;;22.30;77.80;;;;;;6272976;22;19907;-76
2023/01/31 13:12:18;;;;;;;;;;;22.30;77.20;;;;;;6273812;22;19963;-77
2023/01/31 13:14:48;;;;;;;;;;;22.30;77.30;;;;;;6273642;22;19918;-77
2023/01/31 13:17:20;;;;;;;;;;;22.30;77.80;;;;;;6275550;22;19911;-77
2023/01/31 13:19:47;;;;;;;;;;;22.30;77.00;;;;;;6272064;22;19946;-77
2023/01/31 13:22:16;;;;;;;;;;;22.30;77.30;;;;;;6274891;22;19961;-77
2023/01/31 13:24:45;;;;;;;;;;;22.30;77.20;;;;;;6273718;22;19921;-76
2023/01/31 13:27:16;;;;;;;;;;;22.30;77.30;;;;;;6274830;22;20317;-75
2023/01/31 13:29:55;;;;;;;;;;;22.30;77.40;;;;;;6276012;22;19930;-75
2023/01/31 13:32:42;;;;;;;;;;;22.20;77.50;;;;;;6274777;22;19907;-77
2023/01/31 13:44:20;;;;;;;;;;;22.20;77.50;;;;;;6300659;22;20071;-78
2023/01/31 13:46:49;;;;;;;;;;;22.10;77.30;;;;;;6306524;22;20238;-76
2023/01/31 13:49:17;;;;;;;;;;;22.10;77.40;;;;;;6277727;22;19934;-75
2023/01/31 13:51:49;;;;;;;;;;;22.10;77.20;;;;;;6278900;22;19986;-75
2023/01/31 13:54:20;;;;;;;;;;;22.00;77.10;;;;;;6306444;22;20375;-76
2023/01/31 13:56:49;;;;;;;;;;;22.00;77.30;;;;;;6279625;22;19903;-75
2023/01/31 13:59:17;;;;;;;;;;;22.00;77.30;;;;;;6279814;22;19910;-75
2023/01/31 14:01:45;;;;;;;;;;;21.90;77.50;;;;;;6278593;22;20420;-75
2023/01/31 14:04:14;;;;;;;;;;;21.90;77.40;;;;;;6305374;22;20218;-75
2023/01/31 14:06:53;;;;;;;;;;;21.80;77.30;;;;;;6306303;22;19937;-75
2023/01/31 14:09:30;;;;;;;;;;;21.80;77.40;;;;;;6306689;22;19906;-75
2023/01/31 14:11:57;;;;;;;;;;;21.80;77.60;;;;;;6279909;22;20384;-76
2023/01/31 14:14:36;;;;;;;;;;;21.80;77.50;;;;;;6306423;22;19910;-75
2023/01/31 14:17:03;;;;;;;;;;;21.80;77.60;;;;;;6305662;22;19960;-76
2023/01/31 14:19:30;;;;;;;;;;;21.80;77.70;;;;;;6304123;22;19910;-76
2023/01/31 14:22:26;;;;;;;;;;;21.80;77.60;;;;;;6306681;22;19910;-75
2023/01/31 14:24:55;;;;;;;;;;;21.80;77.50;;;;;;6274307;22;19911;-77
2023/01/31 14:28:00;;;;;;;;;;;21.70;77.40;;;;;;6306511;22;19907;-77
2023/01/31 14:30:31;;;;;;;;;;;21.70;77.20;;;;;;6126334;23;19904;-77
2023/01/31 14:32:57;;;;;;;;;;;21.70;77.50;;;;;;6151461;23;19912;-77
2023/01/31 14:35:30;;;;;;;;;;;21.70;77.60;;;;;;6226526;22;20227;-77
2023/01/31 14:38:11;;;;;;;;;;;21.60;77.30;;;;;;6306501;22;19972;-77
2023/01/31 14:40:56;;;;;;;;;;;21.60;77.10;;;;;;6306772;22;19957;-77
2023/01/31 14:43:33;;;;;;;;;;;21.60;77.50;;;;;;6278169;22;19910;-75
2023/01/31 14:46:18;;;;;;;;;;;21.60;77.40;;;;;;6279328;22;20311;-75
2023/01/31 14:49:07;;;;;;;;;;;21.60;77.50;;;;;;6279739;22;19964;-75
2023/01/31 14:51:37;;;;;;;;;;;21.60;77.80;;;;;;6278868;22;19903;-75
2023/01/31 14:54:41;;;;;;;;;;;21.70;77.70;;;;;;6305114;22;20234;-75
2023/01/31 14:57:10;;;;;;;;;;;21.60;77.20;;;;;;6151672;23;20031;-75
2023/01/31 14:59:37;;;;;;;;;;;21.60;77.60;;;;;;6152016;23;19975;-75
2023/01/31 15:02:36;;;;;;;;;;;21.60;77.60;;;;;;6227915;22;20211;-75
2023/01/31 15:05:03;;;;;;;;;;;21.50;77.70;;;;;;6220369;22;19911;-75
2023/01/31 15:07:29;;;;;;;;;;;21.50;77.60;;;;;;6306069;22;19937;-75
2023/01/31 15:09:56;;;;;;;;;;;21.50;77.20;;;;;;6278829;22;19903;-75
2023/01/31 15:12:42;;;;;;;;;;;21.50;77.30;;;;;;6306222;22;20282;-75
2023/01/31 15:15:28;;;;;;;;;;;21.50;78.00;;;;;;6306405;22;19903;-75
2023/01/31 15:17:56;;;;;;;;;;;21.50;77.60;;;;;;6279812;22;20330;-75
2023/01/31 15:20:24;;;;;;;;;;;21.50;77.70;;;;;;6306265;22;20272;-76
2023/01/31 15:22:50;;;;;;;;;;;21.40;77.70;;;;;;6278193;22;19911;-76
2023/01/31 15:25:22;;;;;;;;;;;21.40;77.90;;;;;;6278806;22;19997;-76
2023/01/31 15:27:49;;;;;;;;;;;21.40;78.00;;;;;;6278838;22;20299;-76
2023/01/31 15:30:22;;;;;;;;;;;21.40;77.80;;;;;;6307084;22;19911;-76
2023/01/31 15:33:00;;;;;;;;;;;21.50;78.20;;;;;;6304930;22;19941;-76
2023/01/31 15:35:29;;;;;;;;;;;21.40;78.00;;;;;;6278625;22;19926;-77
2023/01/31 15:38:00;;;;;;;;;;;21.50;77.70;;;;;;6277864;22;19948;-77
2023/01/31 15:40:27;;;;;;;;;;;21.50;77.90;;;;;;6306709;22;19948;-75
2023/01/31 15:42:54;;;;;;;;;;;21.50;77.50;;;;;;6304922;22;19910;-74